sensor_id;sensor_type;location;lat;lon;timestamp;pressure;altitude;pressure_sealevel;temperature;humidity
9289;BME280;4683;50.864;12.086;2023-07-20T00:01:10;98803.84;;;18.15;100.00
9289;BME280;4683;50.864;12.086;2023-07-20T00:03:52;98798.75;;;18.14;100.00
9289;BME280;4683;50.864;12.086;2023-07-20T00:10:32;98800.72;;;18.07;100.00
9289;BME280;4683;50.864;12.086;2023-07-20T00:13:07;98804.56;;;18.11;100.00
9289;BME280;4683;50.864;12.086;2023-07-20T00:15:39;98798.28;;;18.17;100.00
9289;BME280;4683;50.864;12.086;2023-07-20T00:18:11;98803.03;;;18.15;100.00
9289;BME280;4683;50.864;12.086;2023-07-20T00:20:43;98797.50;;;18.05;100.00
9289;BME280;4683;50.864;12.086;2023-07-20T00:23:16;98792.16;;;18.05;100.00
9289;BME280;4683;50.864;12.086;2023-07-20T00:25:44;98793.78;;;18.06;100.00
9289;BME280;4683;50.864;12.086;2023-07-20T00:28:14;98782.84;;;18.19;100.00
9289;BME280;4683;50.864;12.086;2023-07-20T00:30:43;98783.38;;;18.33;100.00
9289;BME280;4683;50.864;12.086;2023-07-20T00:33:16;98784.06;;;18.40;100.00
9289;BME280;4683;50.864;12.086;2023-07-20T00:35:47;98784.28;;;18.38;100.00
9289;BME280;4683;50.864;12.086;2023-07-20T00:38:17;98783.03;;;18.29;100.00
9289;BME280;4683;50.864;12.086;2023-07-20T00:40:47;98781.22;;;18.18;100.00
9289;BME280;4683;50.864;12.086;2023-07-20T00:43:17;98787.22;;;18.25;100.00
9289;BME280;4683;50.864;12.086;2023-07-20T00:45:50;98770.72;;;18.28;100.00
9289;BME280;4683;50.864;12.086;2023-07-20T00:48:22;98777.78;;;18.34;100.00
9289;BME280;4683;50.864;12.086;2023-07-20T00:50:54;98779.69;;;18.22;100.00
9289;BME280;4683;50.864;12.086;2023-07-20T00:53:30;98773.59;;;17.98;100.00
9289;BME280;4683;50.864;12.086;2023-07-20T00:56:03;98784.50;;;17.61;100.00
9289;BME280;4683;50.864;12.086;2023-07-20T00:58:36;98778.84;;;17.46;100.00
9289;BME280;4683;50.864;12.086;2023-07-20T01:01:07;98775.25;;;17.40;100.00
9289;BME280;4683;50.864;12.086;2023-07-20T01:03:39;98776.63;;;17.43;100.00
9289;BME280;4683;50.864;12.086;2023-07-20T01:06:29;98784.06;;;17.53;100.00
9289;BME280;4683;50.864;12.086;2023-07-20T01:09:28;98787.66;;;17.70;100.00
9289;BME280;4683;50.864;12.086;2023-07-20T01:12:07;98789.44;;;17.76;100.00
9289;BME280;4683;50.864;12.086;2023-07-20T01:14:38;98775.50;;;17.74;100.00
9289;BME280;4683;50.864;12.086;2023-07-20T01:17:08;98783.34;;;17.57;100.00
9289;BME280;4683;50.864;12.086;2023-07-20T01:19:37;98775.03;;;17.54;100.00
9289;BME280;4683;50.864;12.086;2023-07-20T01:22:24;98769.94;;;17.40;100.00
9289;BME280;4683;50.864;12.086;2023-07-20T01:25:30;98767.59;;;17.32;100.00
9289;BME280;4683;50.864;12.086;2023-07-20T01:28:49;98766.00;;;17.31;100.00
9289;BME280;4683;50.864;12.086;2023-07-20T01:31:39;98769.69;;;17.54;100.00
9289;BME280;4683;50.864;12.086;2023-07-20T01:34:29;98774.66;;;17.62;100.00
9289;BME280;4683;50.864;12.086;2023-07-20T01:37:21;98767.50;;;17.62;100.00
9289;BME280;4683;50.864;12.086;2023-07-20T01:40:14;98770.84;;;17.58;100.00
9289;BME280;4683;50.864;12.086;2023-07-20T01:42:46;98767.59;;;17.56;100.00
9289;BME280;4683;50.864;12.086;2023-07-20T01:45:18;98771.78;;;17.52;100.00
9289;BME280;4683;50.864;12.086;2023-07-20T01:47:51;98772.81;;;17.50;100.00
9289;BME280;4683;50.864;12.086;2023-07-20T01:50:20;98782.78;;;17.55;100.00
9289;BME280;4683;50.864;12.086;2023-07-20T01:52:50;98777.09;;;17.52;100.00
9289;BME280;4683;50.864;12.086;2023-07-20T01:55:19;98775.81;;;17.42;100.00
9289;BME280;4683;50.864;12.086;2023-07-20T01:57:49;98770.59;;;17.24;100.00
9289;BME280;4683;50.864;12.086;2023-07-20T02:00:18;98770.13;;;17.04;100.00
9289;BME280;4683;50.864;12.086;2023-07-20T02:02:50;98764.09;;;16.96;100.00
9289;BME280;4683;50.864;12.086;2023-07-20T02:05:19;98771.03;;;16.97;100.00
9289;BME280;4683;50.864;12.086;2023-07-20T02:07:49;98764.19;;;16.90;100.00
9289;BME280;4683;50.864;12.086;2023-07-20T02:10:18;98763.97;;;16.91;100.00
9289;BME280;4683;50.864;12.086;2023-07-20T02:12:47;98769.78;;;17.00;100.00
9289;BME280;4683;50.864;12.086;2023-07-20T02:15:18;98779.88;;;17.10;100.00
9289;BME280;4683;50.864;12.086;2023-07-20T02:21:16;98773.03;;;17.14;100.00
9289;BME280;4683;50.864;12.086;2023-07-20T02:23:46;98778.00;;;17.10;100.00
9289;BME280;4683;50.864;12.086;2023-07-20T02:26:15;98775.78;;;17.07;100.00
9289;BME280;4683;50.864;12.086;2023-07-20T02:28:46;98779.50;;;17.06;100.00
9289;BME280;4683;50.864;12.086;2023-07-20T02:31:14;98785.44;;;17.08;100.00
9289;BME280;4683;50.864;12.086;2023-07-20T02:33:44;98790.97;;;17.07;100.00
9289;BME280;4683;50.864;12.086;2023-07-20T02:36:13;98780.19;;;17.02;100.00
9289;BME280;4683;50.864;12.086;2023-07-20T02:38:44;98780.63;;;16.98;100.00
9289;BME280;4683;50.864;12.086;2023-07-20T02:41:14;98781.69;;;16.97;100.00
9289;BME280;4683;50.864;12.086;2023-07-20T02:43:43;98778.56;;;16.70;100.00
9289;BME280;4683;50.864;12.086;2023-07-20T02:46:12;98781.25;;;16.40;100.00
9289;BME280;4683;50.864;12.086;2023-07-20T02:48:41;98766.66;;;16.31;100.00
9289;BME280;4683;50.864;12.086;2023-07-20T02:51:10;98773.03;;;16.42;100.00
9289;BME280;4683;50.864;12.086;2023-07-20T02:53:40;98783.88;;;16.59;100.00
9289;BME280;4683;50.864;12.086;2023-07-20T02:56:12;98792.06;;;16.57;100.00
9289;BME280;4683;50.864;12.086;2023-07-20T02:58:42;98781.25;;;16.70;100.00
9289;BME280;4683;50.864;12.086;2023-07-20T03:01:12;98784.34;;;16.86;100.00
9289;BME280;4683;50.864;12.086;2023-07-20T03:03:42;98793.16;;;16.98;100.00
9289;BME280;4683;50.864;12.086;2023-07-20T03:06:15;98801.63;;;17.07;100.00
9289;BME280;4683;50.864;12.086;2023-07-20T03:08:43;98793.88;;;17.05;100.00
9289;BME280;4683;50.864;12.086;2023-07-20T03:11:17;98804.06;;;16.96;100.00
9289;BME280;4683;50.864;12.086;2023-07-20T03:13:49;98805.09;;;16.95;100.00
9289;BME280;4683;50.864;12.086;2023-07-20T03:16:19;98801.28;;;16.91;100.00
9289;BME280;4683;50.864;12.086;2023-07-20T03:18:48;98799.03;;;16.88;100.00
9289;BME280;4683;50.864;12.086;2023-07-20T03:21:17;98805.91;;;17.08;100.00
9289;BME280;4683;50.864;12.086;2023-07-20T03:23:45;98814.75;;;17.20;100.00
9289;BME280;4683;50.864;12.086;2023-07-20T03:26:16;98821.72;;;17.21;100.00
9289;BME280;4683;50.864;12.086;2023-07-20T03:28:46;98818.03;;;17.22;100.00
9289;BME280;4683;50.864;12.086;2023-07-20T03:31:14;98817.22;;;17.33;100.00
9289;BME280;4683;50.864;12.086;2023-07-20T03:33:43;98815.00;;;17.30;100.00
9289;BME280;4683;50.864;12.086;2023-07-20T03:36:12;98817.53;;;17.25;100.00
9289;BME280;4683;50.864;12.086;2023-07-20T03:38:44;98818.59;;;17.24;100.00
9289;BME280;4683;50.864;12.086;2023-07-20T03:41:13;98818.72;;;17.29;100.00
9289;BME280;4683;50.864;12.086;2023-07-20T03:43:44;98813.25;;;17.24;100.00
9289;BME280;4683;50.864;12.086;2023-07-20T03:46:14;98812.56;;;17.29;100.00
9289;BME280;4683;50.864;12.086;2023-07-20T03:48:42;98810.63;;;17.36;100.00
9289;BME280;4683;50.864;12.086;2023-07-20T03:51:12;98814.66;;;17.38;100.00
9289;BME280;4683;50.864;12.086;2023-07-20T03:53:41;98818.81;;;17.34;100.00
9289;BME280;4683;50.864;12.086;2023-07-20T03:56:10;98825.81;;;17.35;100.00
9289;BME280;4683;50.864;12.086;2023-07-20T03:58:39;98836.00;;;17.38;100.00
9289;BME280;4683;50.864;12.086;2023-07-20T04:01:08;98831.84;;;17.31;100.00
9289;BME280;4683;50.864;12.086;2023-07-20T04:03:37;98830.06;;;17.13;100.00
9289;BME280;4683;50.864;12.086;2023-07-20T04:06:11;98829.25;;;17.24;100.00
9289;BME280;4683;50.864;12.086;2023-07-20T04:08:42;98828.94;;;17.32;100.00
9289;BME280;4683;50.864;12.086;2023-07-20T04:11:11;98824.03;;;17.29;100.00
9289;BME280;4683;50.864;12.086;2023-07-20T04:13:40;98823.94;;;17.24;100.00
9289;BME280;4683;50.864;12.086;2023-07-20T04:20:11;98820.78;;;17.15;100.00
9289;BME280;4683;50.864;12.086;2023-07-20T04:22:39;98822.38;;;17.05;100.00
9289;BME280;4683;50.864;12.086;2023-07-20T04:25:10;98811.19;;;17.26;100.00
9289;BME280;4683;50.864;12.086;2023-07-20T04:27:39;98820.59;;;17.52;100.00
9289;BME280;4683;50.864;12.086;2023-07-20T04:30:08;98824.53;;;17.49;100.00
9289;BME280;4683;50.864;12.086;2023-07-20T04:32:38;98830.34;;;17.58;100.00
9289;BME280;4683;50.864;12.086;2023-07-20T04:35:45;98831.72;;;17.61;100.00
9289;BME280;4683;50.864;12.086;2023-07-20T04:38:15;98832.19;;;17.93;100.00
9289;BME280;4683;50.864;12.086;2023-07-20T04:40:45;98837.78;;;17.80;100.00
9289;BME280;4683;50.864;12.086;2023-07-20T04:43:18;98834.75;;;17.64;100.00
9289;BME280;4683;50.864;12.086;2023-07-20T04:45:47;98835.47;;;17.71;100.00
9289;BME280;4683;50.864;12.086;2023-07-20T04:48:16;98836.06;;;17.85;100.00
9289;BME280;4683;50.864;12.086;2023-07-20T04:50:53;98838.59;;;17.80;100.00
9289;BME280;4683;50.864;12.086;2023-07-20T04:53:23;98837.78;;;17.80;100.00
9289;BME280;4683;50.864;12.086;2023-07-20T04:55:53;98840.09;;;17.88;100.00
9289;BME280;4683;50.864;12.086;2023-07-20T04:58:22;98843.56;;;17.88;100.00
9289;BME280;4683;50.864;12.086;2023-07-20T05:00:51;98844.28;;;17.84;100.00
9289;BME280;4683;50.864;12.086;2023-07-20T05:03:20;98843.47;;;17.95;100.00
9289;BME280;4683;50.864;12.086;2023-07-20T05:05:48;98841.72;;;18.12;100.00
9289;BME280;4683;50.864;12.086;2023-07-20T05:08:19;98851.41;;;18.30;100.00
9289;BME280;4683;50.864;12.086;2023-07-20T05:10:50;98856.63;;;18.25;100.00
9289;BME280;4683;50.864;12.086;2023-07-20T05:13:18;98849.03;;;18.17;100.00
9289;BME280;4683;50.864;12.086;2023-07-20T05:15:51;98847.97;;;18.18;100.00
9289;BME280;4683;50.864;12.086;2023-07-20T05:18:22;98848.78;;;18.18;100.00
9289;BME280;4683;50.864;12.086;2023-07-20T05:20:51;98841.78;;;18.29;100.00
9289;BME280;4683;50.864;12.086;2023-07-20T05:23:21;98850.47;;;18.36;100.00
9289;BME280;4683;50.864;12.086;2023-07-20T05:25:54;98850.69;;;18.35;100.00
9289;BME280;4683;50.864;12.086;2023-07-20T05:28:23;98850.78;;;18.51;100.00
9289;BME280;4683;50.864;12.086;2023-07-20T05:30:53;98856.97;;;18.40;100.00
9289;BME280;4683;50.864;12.086;2023-07-20T05:33:23;98854.91;;;18.31;100.00
9289;BME280;4683;50.864;12.086;2023-07-20T05:35:51;98856.88;;;18.35;100.00
9289;BME280;4683;50.864;12.086;2023-07-20T05:38:22;98853.50;;;18.28;100.00
9289;BME280;4683;50.864;12.086;2023-07-20T05:40:50;98858.34;;;18.43;100.00
9289;BME280;4683;50.864;12.086;2023-07-20T05:43:19;98855.66;;;18.55;100.00
9289;BME280;4683;50.864;12.086;2023-07-20T05:45:50;98856.78;;;18.70;100.00
9289;BME280;4683;50.864;12.086;2023-07-20T05:48:20;98858.19;;;18.73;100.00
9289;BME280;4683;50.864;12.086;2023-07-20T05:50:49;98862.56;;;18.79;100.00
9289;BME280;4683;50.864;12.086;2023-07-20T05:53:22;98858.72;;;18.75;100.00
9289;BME280;4683;50.864;12.086;2023-07-20T05:55:54;98851.00;;;18.90;100.00
9289;BME280;4683;50.864;12.086;2023-07-20T05:58:24;98874.47;;;18.88;100.00
9289;BME280;4683;50.864;12.086;2023-07-20T06:00:54;98867.63;;;18.92;100.00
9289;BME280;4683;50.864;12.086;2023-07-20T06:03:22;98870.28;;;18.92;100.00
9289;BME280;4683;50.864;12.086;2023-07-20T06:05:51;98869.22;;;18.93;100.00
9289;BME280;4683;50.864;12.086;2023-07-20T06:08:21;98856.63;;;19.06;100.00
9289;BME280;4683;50.864;12.086;2023-07-20T06:10:50;98869.53;;;19.09;100.00
9289;BME280;4683;50.864;12.086;2023-07-20T06:13:19;98863.28;;;19.20;100.00
9289;BME280;4683;50.864;12.086;2023-07-20T06:15:48;98867.69;;;19.26;100.00
9289;BME280;4683;50.864;12.086;2023-07-20T06:18:19;98862.16;;;19.33;100.00
9289;BME280;4683;50.864;12.086;2023-07-20T06:20:51;98866.78;;;19.37;100.00
9289;BME280;4683;50.864;12.086;2023-07-20T06:23:22;98864.66;;;19.39;100.00
9289;BME280;4683;50.864;12.086;2023-07-20T06:25:50;98862.97;;;19.33;100.00
9289;BME280;4683;50.864;12.086;2023-07-20T06:28:20;98874.03;;;19.70;100.00
9289;BME280;4683;50.864;12.086;2023-07-20T06:30:48;98873.22;;;19.53;100.00
9289;BME280;4683;50.864;12.086;2023-07-20T06:33:18;98874.03;;;19.54;100.00
9289;BME280;4683;50.864;12.086;2023-07-20T06:35:47;98869.91;;;19.63;100.00
9289;BME280;4683;50.864;12.086;2023-07-20T06:38:17;98867.72;;;19.76;100.00
9289;BME280;4683;50.864;12.086;2023-07-20T06:40:48;98868.41;;;19.89;100.00
9289;BME280;4683;50.864;12.086;2023-07-20T06:43:16;98862.31;;;19.93;100.00
9289;BME280;4683;50.864;12.086;2023-07-20T06:45:51;98856.59;;;20.07;100.00
9289;BME280;4683;50.864;12.086;2023-07-20T06:48:21;98867.47;;;20.17;100.00
9289;BME280;4683;50.864;12.086;2023-07-20T06:50:51;98867.06;;;19.86;100.00
9289;BME280;4683;50.864;12.086;2023-07-20T06:53:20;98866.88;;;19.93;100.00
9289;BME280;4683;50.864;12.086;2023-07-20T06:55:51;98862.88;;;20.12;100.00
9289;BME280;4683;50.864;12.086;2023-07-20T06:58:24;98865.72;;;20.06;100.00
9289;BME280;4683;50.864;12.086;2023-07-20T07:00:55;98862.41;;;20.20;100.00
9289;BME280;4683;50.864;12.086;2023-07-20T07:03:24;98861.59;;;20.20;100.00
9289;BME280;4683;50.864;12.086;2023-07-20T07:05:57;98867.72;;;20.37;100.00
9289;BME280;4683;50.864;12.086;2023-07-20T07:08:26;98865.28;;;20.80;100.00
9289;BME280;4683;50.864;12.086;2023-07-20T07:10:56;98864.69;;;20.72;100.00
9289;BME280;4683;50.864;12.086;2023-07-20T07:13:26;98860.44;;;20.76;100.00
9289;BME280;4683;50.864;12.086;2023-07-20T07:15:56;98867.16;;;20.79;100.00
9289;BME280;4683;50.864;12.086;2023-07-20T07:18:27;98868.19;;;20.73;100.00
9289;BME280;4683;50.864;12.086;2023-07-20T07:21:03;98868.38;;;20.44;100.00
9289;BME280;4683;50.864;12.086;2023-07-20T07:23:34;98867.09;;;20.30;100.00
9289;BME280;4683;50.864;12.086;2023-07-20T07:26:06;98873.88;;;20.16;100.00
9289;BME280;4683;50.864;12.086;2023-07-20T07:28:37;98872.19;;;20.10;100.00
9289;BME280;4683;50.864;12.086;2023-07-20T07:31:06;98869.91;;;20.18;100.00
9289;BME280;4683;50.864;12.086;2023-07-20T07:33:36;98875.06;;;20.03;100.00
9289;BME280;4683;50.864;12.086;2023-07-20T07:36:05;98867.28;;;20.23;100.00
9289;BME280;4683;50.864;12.086;2023-07-20T07:38:35;98872.06;;;20.43;100.00
9289;BME280;4683;50.864;12.086;2023-07-20T07:41:06;98867.94;;;20.52;100.00
9289;BME280;4683;50.864;12.086;2023-07-20T07:43:35;98866.84;;;20.48;100.00
9289;BME280;4683;50.864;12.086;2023-07-20T07:46:05;98867.75;;;20.81;100.00
9289;BME280;4683;50.864;12.086;2023-07-20T07:48:34;98872.97;;;20.71;100.00
9289;BME280;4683;50.864;12.086;2023-07-20T07:51:06;98873.59;;;20.78;100.00
9289;BME280;4683;50.864;12.086;2023-07-20T07:53:34;98880.59;;;21.06;100.00
9289;BME280;4683;50.864;12.086;2023-07-20T07:56:14;98870.84;;;21.54;100.00
9289;BME280;4683;50.864;12.086;2023-07-20T07:58:43;98881.97;;;21.68;100.00
9289;BME280;4683;50.864;12.086;2023-07-20T08:01:12;98882.22;;;22.03;100.00
9289;BME280;4683;50.864;12.086;2023-07-20T08:03:41;98871.34;;;21.88;100.00
9289;BME280;4683;50.864;12.086;2023-07-20T08:06:12;98880.09;;;21.36;100.00
9289;BME280;4683;50.864;12.086;2023-07-20T08:08:43;98872.97;;;21.25;100.00
9289;BME280;4683;50.864;12.086;2023-07-20T08:11:14;98879.44;;;21.56;100.00
9289;BME280;4683;50.864;12.086;2023-07-20T08:13:42;98869.66;;;21.72;100.00
9289;BME280;4683;50.864;12.086;2023-07-20T08:16:12;98874.66;;;22.00;100.00
9289;BME280;4683;50.864;12.086;2023-07-20T08:18:41;98870.59;;;21.98;100.00
9289;BME280;4683;50.864;12.086;2023-07-20T08:21:12;98862.00;;;21.96;100.00
9289;BME280;4683;50.864;12.086;2023-07-20T08:23:42;98861.25;;;22.06;100.00
9289;BME280;4683;50.864;12.086;2023-07-20T08:26:12;98871.09;;;22.32;100.00
9289;BME280;4683;50.864;12.086;2023-07-20T08:28:44;98863.22;;;22.20;100.00
9289;BME280;4683;50.864;12.086;2023-07-20T08:31:15;98863.31;;;21.93;100.00
9289;BME280;4683;50.864;12.086;2023-07-20T08:33:48;98868.56;;;21.73;100.00
9289;BME280;4683;50.864;12.086;2023-07-20T08:36:17;98869.69;;;21.77;100.00
9289;BME280;4683;50.864;12.086;2023-07-20T08:38:48;98869.19;;;21.85;100.00
9289;BME280;4683;50.864;12.086;2023-07-20T08:41:19;98860.69;;;21.98;100.00
9289;BME280;4683;50.864;12.086;2023-07-20T08:43:49;98862.47;;;21.83;100.00
9289;BME280;4683;50.864;12.086;2023-07-20T08:46:18;98865.13;;;21.77;100.00
9289;BME280;4683;50.864;12.086;2023-07-20T08:48:48;98863.50;;;21.76;100.00
9289;BME280;4683;50.864;12.086;2023-07-20T08:51:16;98866.31;;;22.44;100.00
9289;BME280;4683;50.864;12.086;2023-07-20T08:53:48;98852.38;;;22.58;100.00
9289;BME280;4683;50.864;12.086;2023-07-20T08:56:21;98865.94;;;22.25;100.00
9289;BME280;4683;50.864;12.086;2023-07-20T08:58:52;98864.03;;;22.21;100.00
9289;BME280;4683;50.864;12.086;2023-07-20T09:01:26;98861.13;;;22.27;100.00
9289;BME280;4683;50.864;12.086;2023-07-20T09:03:55;98867.09;;;22.35;100.00
9289;BME280;4683;50.864;12.086;2023-07-20T09:06:24;98865.72;;;22.32;100.00
9289;BME280;4683;50.864;12.086;2023-07-20T09:08:52;98860.31;;;22.22;100.00
9289;BME280;4683;50.864;12.086;2023-07-20T09:11:22;98859.00;;;21.87;100.00
9289;BME280;4683;50.864;12.086;2023-07-20T09:14:03;98854.13;;;21.84;100.00
9289;BME280;4683;50.864;12.086;2023-07-20T09:16:32;98856.91;;;21.94;100.00
9289;BME280;4683;50.864;12.086;2023-07-20T09:19:00;98866.28;;;21.92;100.00
9289;BME280;4683;50.864;12.086;2023-07-20T09:21:30;98864.50;;;22.08;100.00
9289;BME280;4683;50.864;12.086;2023-07-20T09:24:03;98859.63;;;22.04;100.00
9289;BME280;4683;50.864;12.086;2023-07-20T09:26:41;98862.25;;;21.89;100.00
9289;BME280;4683;50.864;12.086;2023-07-20T09:29:10;98862.75;;;21.86;100.00
9289;BME280;4683;50.864;12.086;2023-07-20T09:31:39;98861.63;;;21.77;100.00
9289;BME280;4683;50.864;12.086;2023-07-20T09:34:08;98862.59;;;21.66;100.00
9289;BME280;4683;50.864;12.086;2023-07-20T09:36:37;98871.06;;;21.47;100.00
9289;BME280;4683;50.864;12.086;2023-07-20T09:39:05;98870.16;;;21.37;100.00
9289;BME280;4683;50.864;12.086;2023-07-20T09:41:43;98869.44;;;21.46;100.00
9289;BME280;4683;50.864;12.086;2023-07-20T09:44:17;98874.47;;;21.75;100.00
9289;BME280;4683;50.864;12.086;2023-07-20T09:46:49;98867.19;;;22.08;100.00
9289;BME280;4683;50.864;12.086;2023-07-20T09:49:18;98873.41;;;22.13;100.00
9289;BME280;4683;50.864;12.086;2023-07-20T09:51:49;98877.31;;;22.43;100.00
9289;BME280;4683;50.864;12.086;2023-07-20T09:54:19;98870.47;;;22.20;100.00
9289;BME280;4683;50.864;12.086;2023-07-20T09:56:53;98865.22;;;21.98;100.00
9289;BME280;4683;50.864;12.086;2023-07-20T09:59:23;98875.63;;;21.84;100.00
9289;BME280;4683;50.864;12.086;2023-07-20T10:01:54;98882.50;;;21.70;100.00
9289;BME280;4683;50.864;12.086;2023-07-20T10:04:28;98886.72;;;21.61;100.00
9289;BME280;4683;50.864;12.086;2023-07-20T10:07:01;98892.09;;;21.61;100.00
9289;BME280;4683;50.864;12.086;2023-07-20T10:09:36;98893.44;;;21.58;100.00
9289;BME280;4683;50.864;12.086;2023-07-20T10:12:09;98897.66;;;21.49;100.00
9289;BME280;4683;50.864;12.086;2023-07-20T10:14:44;98907.22;;;21.13;100.00
9289;BME280;4683;50.864;12.086;2023-07-20T10:17:17;98895.81;;;21.00;100.00
9289;BME280;4683;50.864;12.086;2023-07-20T10:19:48;98886.56;;;21.13;100.00
9289;BME280;4683;50.864;12.086;2023-07-20T10:22:26;98880.59;;;21.33;100.00
9289;BME280;4683;50.864;12.086;2023-07-20T10:24:56;98880.06;;;21.31;100.00
9289;BME280;4683;50.864;12.086;2023-07-20T10:27:29;98872.47;;;21.28;100.00
9289;BME280;4683;50.864;12.086;2023-07-20T10:30:01;98866.25;;;21.87;100.00
9289;BME280;4683;50.864;12.086;2023-07-20T10:32:31;98869.50;;;22.36;100.00
9289;BME280;4683;50.864;12.086;2023-07-20T10:35:00;98863.06;;;22.42;100.00
9289;BME280;4683;50.864;12.086;2023-07-20T10:37:54;98864.31;;;22.92;100.00
9289;BME280;4683;50.864;12.086;2023-07-20T10:40:31;98851.47;;;23.45;100.00
9289;BME280;4683;50.864;12.086;2023-07-20T10:43:06;98858.72;;;23.91;100.00
9289;BME280;4683;50.864;12.086;2023-07-20T10:45:39;98844.81;;;24.43;100.00
9289;BME280;4683;50.864;12.086;2023-07-20T10:48:18;98848.16;;;24.04;99.50
9289;BME280;4683;50.864;12.086;2023-07-20T10:51:11;98852.50;;;23.90;100.00
9289;BME280;4683;50.864;12.086;2023-07-20T10:53:43;98872.44;;;23.38;100.00
9289;BME280;4683;50.864;12.086;2023-07-20T10:56:13;98896.47;;;22.09;100.00
9289;BME280;4683;50.864;12.086;2023-07-20T10:58:44;98791.78;;;18.82;100.00
9289;BME280;4683;50.864;12.086;2023-07-20T11:01:17;98731.41;;;17.60;100.00
9289;BME280;4683;50.864;12.086;2023-07-20T11:03:50;98733.47;;;16.87;100.00
9289;BME280;4683;50.864;12.086;2023-07-20T11:06:33;98732.88;;;16.43;100.00
9289;BME280;4683;50.864;12.086;2023-07-20T11:09:08;98716.44;;;16.46;100.00
9289;BME280;4683;50.864;12.086;2023-07-20T11:11:39;98709.97;;;16.72;100.00
9289;BME280;4683;50.864;12.086;2023-07-20T11:14:10;98714.72;;;16.82;100.00
9289;BME280;4683;50.864;12.086;2023-07-20T11:16:49;98705.69;;;16.83;100.00
9289;BME280;4683;50.864;12.086;2023-07-20T11:19:22;98708.47;;;17.12;100.00
9289;BME280;4683;50.864;12.086;2023-07-20T11:21:54;98704.03;;;17.53;100.00
9289;BME280;4683;50.864;12.086;2023-07-20T11:24:23;98712.72;;;17.83;100.00
9289;BME280;4683;50.864;12.086;2023-07-20T11:26:55;98714.78;;;17.93;100.00
9289;BME280;4683;50.864;12.086;2023-07-20T11:29:27;98743.31;;;18.04;100.00
9289;BME280;4683;50.864;12.086;2023-07-20T11:31:58;98761.28;;;17.97;100.00
9289;BME280;4683;50.864;12.086;2023-07-20T11:34:31;98793.22;;;18.04;100.00
9289;BME280;4683;50.864;12.086;2023-07-20T11:37:01;98798.31;;;17.93;100.00
9289;BME280;4683;50.864;12.086;2023-07-20T11:39:38;98812.34;;;18.00;100.00
9289;BME280;4683;50.864;12.086;2023-07-20T11:42:07;98810.75;;;17.99;100.00
9289;BME280;4683;50.864;12.086;2023-07-20T11:44:42;98809.59;;;17.95;100.00
9289;BME280;4683;50.864;12.086;2023-07-20T11:47:14;98819.59;;;18.29;100.00
9289;BME280;4683;50.864;12.086;2023-07-20T11:49:45;98826.13;;;18.21;100.00
9289;BME280;4683;50.864;12.086;2023-07-20T11:52:26;98857.38;;;18.72;100.00
9289;BME280;4683;50.864;12.086;2023-07-20T11:54:55;98873.84;;;19.43;100.00
9289;BME280;4683;50.864;12.086;2023-07-20T11:57:27;98895.53;;;20.31;100.00
9289;BME280;4683;50.864;12.086;2023-07-20T12:00:02;98894.31;;;20.61;100.00
9289;BME280;4683;50.864;12.086;2023-07-20T12:02:35;98902.25;;;20.99;100.00
9289;BME280;4683;50.864;12.086;2023-07-20T12:05:16;98900.97;;;21.07;100.00
9289;BME280;4683;50.864;12.086;2023-07-20T12:07:50;98905.41;;;21.18;100.00
9289;BME280;4683;50.864;12.086;2023-07-20T12:10:25;98897.66;;;21.49;100.00
9289;BME280;4683;50.864;12.086;2023-07-20T12:13:02;98900.75;;;21.68;100.00
9289;BME280;4683;50.864;12.086;2023-07-20T12:15:33;98921.97;;;21.37;100.00
9289;BME280;4683;50.864;12.086;2023-07-20T12:18:03;98917.34;;;21.60;100.00
9289;BME280;4683;50.864;12.086;2023-07-20T12:20:35;98913.72;;;21.17;100.00
9289;BME280;4683;50.864;12.086;2023-07-20T12:23:09;98917.06;;;21.07;100.00
9289;BME280;4683;50.864;12.086;2023-07-20T12:25:39;98928.97;;;21.16;100.00
9289;BME280;4683;50.864;12.086;2023-07-20T12:28:21;98920.78;;;21.01;100.00
9289;BME280;4683;50.864;12.086;2023-07-20T12:30:52;98919.66;;;21.24;100.00
9289;BME280;4683;50.864;12.086;2023-07-20T12:33:28;98915.06;;;21.46;100.00
9289;BME280;4683;50.864;12.086;2023-07-20T12:35:57;98915.75;;;21.64;100.00
9289;BME280;4683;50.864;12.086;2023-07-20T12:38:26;98918.88;;;21.50;100.00
9289;BME280;4683;50.864;12.086;2023-07-20T12:40:57;98917.41;;;21.70;100.00
9289;BME280;4683;50.864;12.086;2023-07-20T12:43:29;98918.56;;;21.79;100.00
9289;BME280;4683;50.864;12.086;2023-07-20T12:46:03;98911.59;;;22.20;100.00
9289;BME280;4683;50.864;12.086;2023-07-20T12:48:31;98907.91;;;22.32;100.00
9289;BME280;4683;50.864;12.086;2023-07-20T12:51:05;98913.03;;;22.38;100.00
9289;BME280;4683;50.864;12.086;2023-07-20T12:53:40;98915.28;;;22.57;100.00
9289;BME280;4683;50.864;12.086;2023-07-20T12:56:10;98906.56;;;22.34;100.00
9289;BME280;4683;50.864;12.086;2023-07-20T12:58:40;98903.78;;;22.14;100.00
9289;BME280;4683;50.864;12.086;2023-07-20T13:01:12;98911.38;;;22.27;100.00
9289;BME280;4683;50.864;12.086;2023-07-20T13:03:41;98918.97;;;22.35;100.00
9289;BME280;4683;50.864;12.086;2023-07-20T13:06:11;98921.28;;;22.84;100.00
9289;BME280;4683;50.864;12.086;2023-07-20T13:08:39;98929.13;;;22.86;100.00
9289;BME280;4683;50.864;12.086;2023-07-20T13:11:10;98925.56;;;22.70;100.00
9289;BME280;4683;50.864;12.086;2023-07-20T13:13:41;98926.50;;;22.43;100.00
9289;BME280;4683;50.864;12.086;2023-07-20T13:16:11;98937.38;;;22.64;100.00
9289;BME280;4683;50.864;12.086;2023-07-20T13:18:43;98925.56;;;22.70;100.00
9289;BME280;4683;50.864;12.086;2023-07-20T13:21:13;98928.31;;;22.27;100.00
9289;BME280;4683;50.864;12.086;2023-07-20T13:23:42;98929.47;;;22.42;100.00
9289;BME280;4683;50.864;12.086;2023-07-20T13:26:12;98920.88;;;22.45;100.00
9289;BME280;4683;50.864;12.086;2023-07-20T13:28:46;98913.69;;;22.61;100.00
9289;BME280;4683;50.864;12.086;2023-07-20T13:31:16;98914.25;;;22.63;100.00
9289;BME280;4683;50.864;12.086;2023-07-20T13:33:44;98911.81;;;22.66;100.00
9289;BME280;4683;50.864;12.086;2023-07-20T13:36:13;98917.00;;;22.88;100.00